LLBG/TLV METAR and TAF weather

Enter ICAO airport designator
Station Type Date Time Source
LLBG METAR 2019/10/19 06:50 UTC NOAA

LLBG 190650Z VRB02KT 9999 FEW030 26/19 Q1017 NOSIG


Station Type Date Time Source
LLBG Decoded METAR 2019/10/19 06:50 UTC NOAA

Ben-Gurion International Airport, Israel (LLBG) 32-00N 034-54E 49M
Oct 19, 2019 - 02:50 AM EDT / 2019.10.19 0650 UTC
Wind: Variable at 2 MPH (2 KT):0
Visibility: greater than 7 mile(s):0
Sky conditions: mostly clear
Temperature: 78 F (26 C)
Dew Point: 66 F (19 C)
Relative Humidity: 65%
Pressure (altimeter): 30.03 in. Hg (1017 hPa)
ob: LLBG 190650Z VRB02KT 9999 FEW030 26/19 Q1017 NOSIG
cycle: 7

Station Type Date Time Source
LLBG TAF 2019/10/19 06:06 UTC NOAA

TAF TAF LLBG 190502Z 1906/2006 VRB04KT 9999 SCT030
BECMG 1907/1909 32010KT FEW035
BECMG 1915/1917 VRB03KT SCT030
TEMPO 1920/2005 14005KT BKN025 TX29/1911Z TN20/2004Z

Example: see airport list